createdAt,value
2023-03-02T00:01:30.554Z,-5.88
2023-03-02T00:03:59.556Z,-5.71
2023-03-02T00:06:28.340Z,-5.72
2023-03-02T00:09:00.737Z,-5.69
2023-03-02T00:11:29.027Z,-5.75
2023-03-02T00:13:55.605Z,-5.70
2023-03-02T00:16:22.324Z,-5.70
2023-03-02T00:18:48.989Z,-5.77
2023-03-02T00:21:15.685Z,-5.87
2023-03-02T00:23:43.450Z,-5.70
2023-03-02T00:26:09.969Z,-5.80
2023-03-02T00:28:36.573Z,-5.89
2023-03-02T00:31:06.674Z,-5.88
2023-03-02T00:33:33.749Z,-5.89
2023-03-02T00:36:01.562Z,-5.90
2023-03-02T00:38:28.895Z,-5.91
2023-03-02T00:40:56.191Z,-5.92
2023-03-02T00:43:27.975Z,-6.01
2023-03-02T00:45:55.266Z,-6.03
2023-03-02T00:48:22.067Z,-6.14
2023-03-02T00:50:48.668Z,-6.09
2023-03-02T00:53:15.373Z,-6.18
2023-03-02T00:55:42.001Z,-6.47
2023-03-02T00:58:09.527Z,-6.30
2023-03-02T01:00:37.485Z,-6.38
2023-03-02T01:03:04.142Z,-6.22
2023-03-02T01:05:30.895Z,-6.21
2023-03-02T01:07:57.706Z,-6.32
2023-03-02T01:10:25.279Z,-6.24
2023-03-02T01:12:51.812Z,-6.26
2023-03-02T01:15:26.427Z,-6.29
2023-03-02T01:17:53.039Z,-6.32
2023-03-02T01:20:19.684Z,-6.34
2023-03-02T01:22:46.366Z,-6.40
2023-03-02T01:25:13.478Z,-6.39
2023-03-02T01:27:40.062Z,-6.40
2023-03-02T01:30:08.245Z,-6.45
2023-03-02T01:32:35.133Z,-6.57
2023-03-02T01:35:02.017Z,-6.41
2023-03-02T01:37:29.670Z,-6.36
2023-03-02T01:39:56.460Z,-6.49
2023-03-02T01:42:23.051Z,-6.56
2023-03-02T01:44:54.204Z,-6.51
2023-03-02T01:47:26.961Z,-6.56
2023-03-02T01:50:00.332Z,-6.60
2023-03-02T01:52:29.395Z,-6.65
2023-03-02T01:55:01.537Z,-6.60
2023-03-02T01:57:32.826Z,-6.55
2023-03-02T02:00:10.009Z,-6.51
2023-03-02T02:02:36.871Z,-6.52
2023-03-02T02:05:04.037Z,-6.44
2023-03-02T02:07:31.309Z,-6.48
2023-03-02T02:09:58.397Z,-6.42
2023-03-02T02:12:25.322Z,-6.37
2023-03-02T02:14:54.024Z,-6.30
2023-03-02T02:17:20.892Z,-6.36
2023-03-02T02:19:55.415Z,-6.32
2023-03-02T02:22:39.120Z,-6.45
2023-03-02T02:25:16.477Z,-6.34
2023-03-02T02:27:43.401Z,-6.30
2023-03-02T02:30:13.371Z,-6.60
2023-03-02T02:32:43.515Z,-6.34
2023-03-02T02:35:20.385Z,-6.35
2023-03-02T02:37:53.736Z,-6.39
2023-03-02T02:40:38.347Z,-6.48
2023-03-02T02:43:06.803Z,-6.41
2023-03-02T02:45:36.714Z,-6.51
2023-03-02T02:48:03.428Z,-6.51
2023-03-02T02:50:35.160Z,-6.58
2023-03-02T02:53:15.962Z,-6.69
2023-03-02T02:55:43.669Z,-6.70
2023-03-02T02:58:28.576Z,-6.81
2023-03-02T03:00:55.472Z,-6.83
2023-03-02T03:03:33.201Z,-6.88
2023-03-02T03:06:02.266Z,-6.81
2023-03-02T03:08:43.927Z,-6.80
2023-03-02T03:11:15.801Z,-6.82
2023-03-02T03:13:44.324Z,-6.94
2023-03-02T03:16:15.225Z,-6.97
2023-03-02T03:18:43.636Z,-6.84
2023-03-02T03:21:10.797Z,-6.84
2023-03-02T03:23:38.287Z,-6.85
2023-03-02T03:26:06.123Z,-6.97
2023-03-02T03:28:33.649Z,-6.90
2023-03-02T03:31:13.336Z,-6.95
2023-03-02T03:33:40.076Z,-6.98
2023-03-02T03:36:07.085Z,-7.09
2023-03-02T03:38:33.827Z,-7.11
2023-03-02T03:41:01.127Z,-7.13
2023-03-02T03:43:27.714Z,-7.14
2023-03-02T03:45:54.295Z,-7.23
2023-03-02T03:48:20.907Z,-7.13
2023-03-02T03:50:47.589Z,-7.19
2023-03-02T03:53:14.188Z,-7.20
2023-03-02T03:55:41.386Z,-7.13
2023-03-02T03:58:08.032Z,-7.20
2023-03-02T04:00:34.732Z,-7.12
2023-03-02T04:03:01.568Z,-7.12
2023-03-02T04:05:30.702Z,-7.04
2023-03-02T04:08:02.250Z,-7.07
2023-03-02T04:10:29.781Z,-7.00
2023-03-02T04:12:56.534Z,-7.01
2023-03-02T04:15:23.699Z,-7.12
2023-03-02T04:17:51.101Z,-7.15
2023-03-02T04:20:19.295Z,-7.19
2023-03-02T04:22:48.148Z,-7.31
2023-03-02T04:25:19.865Z,-7.31
2023-03-02T04:27:47.827Z,-7.27
2023-03-02T04:30:15.554Z,-7.32
2023-03-02T04:32:44.070Z,-7.38
2023-03-02T04:35:11.979Z,-7.43
2023-03-02T04:37:39.781Z,-7.40
2023-03-02T04:40:07.632Z,-7.39
2023-03-02T04:42:34.462Z,-7.36
2023-03-02T04:45:01.247Z,-7.26
2023-03-02T04:47:27.956Z,-7.27
2023-03-02T04:49:54.900Z,-7.40
2023-03-02T04:52:22.571Z,-7.37
2023-03-02T04:54:49.226Z,-7.48
2023-03-02T04:57:15.766Z,-7.37
2023-03-02T04:59:42.490Z,-7.52
2023-03-02T05:02:09.471Z,-7.36
2023-03-02T05:04:36.259Z,-7.64
2023-03-02T05:07:03.029Z,-7.61
2023-03-02T05:09:31.002Z,-7.45
2023-03-02T05:11:59.244Z,-7.55
2023-03-02T05:14:26.969Z,-7.56
2023-03-02T05:16:53.901Z,-7.62
2023-03-02T05:19:20.966Z,-7.52
2023-03-02T05:21:47.666Z,-7.55
2023-03-02T05:24:14.961Z,-7.55
2023-03-02T05:26:42.003Z,-7.57
2023-03-02T05:29:08.816Z,-7.44
2023-03-02T05:31:38.896Z,-7.38
2023-03-02T05:34:07.990Z,-7.37
2023-03-02T05:36:35.587Z,-7.38
2023-03-02T05:39:03.807Z,-7.37
2023-03-02T05:41:30.409Z,-7.29
2023-03-02T05:43:57.375Z,-7.07
2023-03-02T05:46:52.977Z,-6.75
2023-03-02T05:49:19.774Z,-6.57
2023-03-02T05:51:46.272Z,-6.30
2023-03-02T05:54:12.910Z,-6.08
2023-03-02T05:56:39.571Z,-5.82
2023-03-02T05:59:06.113Z,-5.51
2023-03-02T06:01:33.101Z,-5.24
2023-03-02T06:04:00.034Z,-5.07
2023-03-02T06:06:26.643Z,-5.15
2023-03-02T06:08:53.372Z,-5.20
2023-03-02T06:11:20.151Z,-5.17
2023-03-02T06:13:46.930Z,-4.92
2023-03-02T06:16:13.639Z,-4.68
2023-03-02T06:18:41.556Z,-4.41
2023-03-02T06:21:08.897Z,-4.22
2023-03-02T06:23:35.564Z,-4.11
2023-03-02T06:26:08.676Z,-4.10
2023-03-02T06:28:49.830Z,-4.14
2023-03-02T06:31:18.449Z,-4.19
2023-03-02T06:33:45.004Z,-3.47
2023-03-02T06:36:12.697Z,-3.30
2023-03-02T06:38:39.519Z,-3.01
2023-03-02T06:41:06.117Z,-2.64
2023-03-02T06:43:32.670Z,-2.23
2023-03-02T06:46:01.210Z,-2.04
2023-03-02T06:48:29.806Z,-1.95
2023-03-02T06:50:56.370Z,-1.92
2023-03-02T06:53:23.929Z,-1.87
2023-03-02T06:55:51.411Z,-1.45
2023-03-02T06:58:18.019Z,-1.25
2023-03-02T07:00:45.068Z,-1.06
2023-03-02T07:03:11.712Z,-1.09
2023-03-02T07:05:38.434Z,-0.90
2023-03-02T07:08:05.058Z,-0.68
2023-03-02T07:10:31.716Z,-0.50
2023-03-02T07:12:58.412Z,-0.24
2023-03-02T07:15:26.496Z,-0.17
2023-03-02T07:17:53.058Z,-0.22
2023-03-02T07:20:19.912Z,0.02
2023-03-02T07:22:46.528Z,0.27
2023-03-02T07:25:13.978Z,0.42
2023-03-02T07:27:41.063Z,0.62
2023-03-02T07:30:08.394Z,0.75
2023-03-02T07:32:35.424Z,1.00
2023-03-02T07:35:02.244Z,1.22
2023-03-02T07:37:28.952Z,1.24
2023-03-02T07:39:55.551Z,1.55
2023-03-02T07:42:22.253Z,1.88
2023-03-02T07:44:48.886Z,2.13
2023-03-02T07:47:15.509Z,2.37
2023-03-02T07:49:42.099Z,2.57
2023-03-02T07:52:08.724Z,2.60
2023-03-02T07:54:35.323Z,2.76
2023-03-02T07:57:02.075Z,2.85
2023-03-02T07:59:29.727Z,2.99
2023-03-02T08:01:57.307Z,3.09
2023-03-02T08:04:24.462Z,3.17
2023-03-02T08:06:51.545Z,3.43
2023-03-02T08:23:53.000Z,3.71
2023-03-02T08:26:21.250Z,3.84
2023-03-02T08:28:48.310Z,3.70
2023-03-02T08:31:15.766Z,3.93
2023-03-02T08:33:43.641Z,3.95
2023-03-02T08:36:15.660Z,4.02
2023-03-02T08:38:43.085Z,3.99
2023-03-02T08:41:13.927Z,3.90
2023-03-02T08:43:41.212Z,3.87
2023-03-02T08:46:07.978Z,3.62
2023-03-02T08:48:34.670Z,3.73
2023-03-02T08:51:04.828Z,3.86
2023-03-02T08:53:34.160Z,3.86
2023-03-02T08:56:01.011Z,3.79
2023-03-02T08:58:28.034Z,3.69
2023-03-02T09:00:54.885Z,3.62
2023-03-02T09:03:21.949Z,3.53
2023-03-02T09:05:48.630Z,3.44
2023-03-02T09:08:15.424Z,3.45
2023-03-02T09:10:45.060Z,3.44
2023-03-02T09:13:13.218Z,3.59
2023-03-02T09:15:39.774Z,3.58
2023-03-02T09:18:06.524Z,3.83
2023-03-02T09:20:34.504Z,3.67
2023-03-02T09:23:01.303Z,3.71
2023-03-02T09:25:29.434Z,3.67
2023-03-02T09:27:56.062Z,3.91
2023-03-02T09:30:22.808Z,3.93
2023-03-02T09:32:49.490Z,3.73
2023-03-02T09:35:16.451Z,3.91
2023-03-02T09:37:44.474Z,3.95
2023-03-02T09:40:23.385Z,4.00
2023-03-02T09:43:02.691Z,4.10
2023-03-02T09:45:39.669Z,4.12
2023-03-02T09:48:19.771Z,4.13
2023-03-02T09:50:56.302Z,4.06
2023-03-02T09:53:22.853Z,4.16
2023-03-02T09:55:55.367Z,4.24
2023-03-02T09:58:25.637Z,4.14
2023-03-02T10:00:53.354Z,4.30
2023-03-02T10:03:28.142Z,4.45
2023-03-02T10:05:55.589Z,4.61
2023-03-02T10:08:26.032Z,4.52
2023-03-02T10:10:55.713Z,4.53
2023-03-02T10:13:33.881Z,4.48
2023-03-02T10:16:25.242Z,4.50
2023-03-02T10:19:05.419Z,4.43
2023-03-02T10:21:39.068Z,4.36
2023-03-02T10:24:08.795Z,4.39
2023-03-02T10:26:50.611Z,4.49
2023-03-02T10:29:37.399Z,4.50
2023-03-02T10:32:10.539Z,4.48
2023-03-02T10:34:38.301Z,4.52
2023-03-02T10:37:17.107Z,4.51
2023-03-02T10:39:53.287Z,4.46
2023-03-02T10:42:26.467Z,4.31
2023-03-02T10:44:57.871Z,4.48
2023-03-02T10:47:28.403Z,4.61
2023-03-02T10:49:57.589Z,4.67
2023-03-02T10:52:27.353Z,4.82
2023-03-02T10:55:12.714Z,4.82
2023-03-02T10:57:44.282Z,4.63
2023-03-02T11:00:16.920Z,4.80
2023-03-02T11:03:01.638Z,4.76
2023-03-02T11:05:37.413Z,4.75
2023-03-02T11:08:13.682Z,4.74
2023-03-02T11:11:02.203Z,4.77
2023-03-02T11:13:34.383Z,4.83
2023-03-02T11:16:22.164Z,4.76
2023-03-02T11:18:51.430Z,4.80
2023-03-02T11:21:33.337Z,4.91
2023-03-02T11:24:02.819Z,5.05
2023-03-02T11:26:47.697Z,5.17
2023-03-02T11:29:40.206Z,5.06
2023-03-02T11:32:26.830Z,5.13
2023-03-02T11:35:19.017Z,5.31
2023-03-02T11:37:55.414Z,5.26
2023-03-02T11:40:31.089Z,5.27
2023-03-02T11:43:10.064Z,5.29
2023-03-02T11:45:48.310Z,5.48
2023-03-02T11:48:24.944Z,5.54
2023-03-02T11:50:58.930Z,5.71
2023-03-02T11:53:49.512Z,5.59
2023-03-02T11:56:17.044Z,5.60
2023-03-02T11:58:49.494Z,5.49
2023-03-02T12:01:22.372Z,5.30
2023-03-02T12:03:49.141Z,5.36
2023-03-02T12:06:18.699Z,5.39
2023-03-02T12:08:48.312Z,5.38
2023-03-02T12:11:17.978Z,5.43
2023-03-02T12:14:01.240Z,5.58
2023-03-02T12:16:43.264Z,5.52
2023-03-02T12:19:24.806Z,5.45
2023-03-02T12:22:00.370Z,5.44
2023-03-02T12:24:30.350Z,5.40
2023-03-02T12:27:06.883Z,5.42
2023-03-02T12:29:46.214Z,5.46
2023-03-02T12:32:31.201Z,5.37
2023-03-02T12:35:03.137Z,5.22
2023-03-02T12:37:35.540Z,5.33
2023-03-02T12:40:24.501Z,5.45
2023-03-02T12:43:09.760Z,5.54
2023-03-02T12:45:57.835Z,5.53
2023-03-02T12:48:24.471Z,5.55
2023-03-02T12:50:55.558Z,5.48
2023-03-02T12:53:22.389Z,5.54
2023-03-02T12:55:49.056Z,5.67
2023-03-02T12:58:22.428Z,5.73
2023-03-02T13:00:58.475Z,5.70
2023-03-02T13:03:26.773Z,5.66
2023-03-02T13:06:12.054Z,5.57
2023-03-02T13:08:39.082Z,5.55
2023-03-02T13:11:05.839Z,5.63
2023-03-02T13:13:32.451Z,5.82
2023-03-02T13:16:04.648Z,5.92
2023-03-02T13:18:36.516Z,5.83
2023-03-02T13:21:05.676Z,5.87
2023-03-02T13:23:33.861Z,5.53
2023-03-02T13:26:03.512Z,5.86
2023-03-02T13:28:38.676Z,5.85
2023-03-02T13:31:25.300Z,5.67
2023-03-02T13:33:54.214Z,5.56
2023-03-02T13:36:24.085Z,5.54
2023-03-02T13:38:57.580Z,5.55
2023-03-02T13:41:29.563Z,5.59
2023-03-02T13:43:57.326Z,5.53
2023-03-02T13:46:33.691Z,5.39
2023-03-02T13:49:10.123Z,5.41
2023-03-02T13:51:43.597Z,5.37
2023-03-02T13:54:19.594Z,5.33
2023-03-02T13:56:47.461Z,5.31
2023-03-02T13:59:16.502Z,5.30
2023-03-02T14:01:44.305Z,5.32
2023-03-02T14:04:17.652Z,5.38
2023-03-02T14:06:45.737Z,5.37
2023-03-02T14:09:12.878Z,5.29
2023-03-02T14:11:44.570Z,5.23
2023-03-02T14:14:16.470Z,5.27
2023-03-02T14:16:43.460Z,5.29
2023-03-02T14:19:13.808Z,5.36
2023-03-02T14:21:40.537Z,5.45
2023-03-02T14:24:07.413Z,5.33
2023-03-02T14:26:38.062Z,5.28
2023-03-02T14:29:21.401Z,5.21
2023-03-02T14:31:48.546Z,5.21
2023-03-02T14:34:16.848Z,5.16
2023-03-02T14:36:49.481Z,5.16
2023-03-02T14:39:32.563Z,5.10
2023-03-02T14:41:59.573Z,5.07
2023-03-02T14:44:27.521Z,5.04
2023-03-02T14:46:54.315Z,4.83
2023-03-02T14:49:21.323Z,4.93
2023-03-02T14:52:23.684Z,4.87
2023-03-02T14:55:00.246Z,4.87
2023-03-02T14:57:30.047Z,4.82
2023-03-02T15:00:00.110Z,4.81
2023-03-02T15:02:27.404Z,4.76
2023-03-02T15:04:57.275Z,4.64
2023-03-02T15:07:26.547Z,4.74
2023-03-02T15:09:53.220Z,4.70
2023-03-02T15:12:19.842Z,4.49
2023-03-02T15:14:46.413Z,4.46
2023-03-02T15:17:13.081Z,4.53
2023-03-02T15:19:53.388Z,4.55
2023-03-02T15:22:20.007Z,4.34
2023-03-02T15:24:46.803Z,4.36
2023-03-02T15:27:13.497Z,4.38
2023-03-02T15:29:47.488Z,4.16
2023-03-02T15:32:14.748Z,4.16
2023-03-02T15:34:41.823Z,3.78
2023-03-02T15:37:11.571Z,3.99
2023-03-02T15:39:38.812Z,3.81
2023-03-02T15:42:06.684Z,3.61
2023-03-02T15:44:33.916Z,3.80
2023-03-02T15:47:01.403Z,3.68
2023-03-02T15:49:29.773Z,3.63
2023-03-02T15:52:03.731Z,3.68
2023-03-02T15:54:30.493Z,3.36
2023-03-02T15:56:57.475Z,3.39
2023-03-02T15:59:26.880Z,3.52
2023-03-02T16:01:59.173Z,3.42
2023-03-02T16:04:26.816Z,3.28
2023-03-02T16:06:55.097Z,3.25
2023-03-02T16:09:24.224Z,3.17
2023-03-02T16:11:51.713Z,3.16
2023-03-02T16:14:20.347Z,2.70
2023-03-02T16:16:47.112Z,2.62
2023-03-02T16:19:19.064Z,2.93
2023-03-02T16:21:47.013Z,2.47
2023-03-02T16:24:16.134Z,2.52
2023-03-02T16:26:43.325Z,2.28
2023-03-02T16:29:11.889Z,2.50
2023-03-02T16:31:39.892Z,2.38
2023-03-02T16:34:11.750Z,2.24
2023-03-02T16:36:40.300Z,1.85
2023-03-02T16:39:08.260Z,1.90
2023-03-02T16:41:34.916Z,1.65
2023-03-02T16:44:01.714Z,1.64
2023-03-02T16:46:31.436Z,1.50
2023-03-02T16:48:58.964Z,1.36
2023-03-02T16:51:25.870Z,1.31
2023-03-02T16:53:52.685Z,1.12
2023-03-02T16:56:21.185Z,1.04
2023-03-02T16:58:47.892Z,0.81
2023-03-02T17:01:20.473Z,0.80
2023-03-02T17:03:49.421Z,0.87
2023-03-02T17:06:18.287Z,0.64
2023-03-02T17:08:44.996Z,0.52
2023-03-02T17:11:11.917Z,0.60
2023-03-02T17:13:38.721Z,0.33
2023-03-02T17:16:06.037Z,0.30
2023-03-02T17:18:33.167Z,0.29
2023-03-02T17:21:00.521Z,0.36
2023-03-02T17:23:28.122Z,0.33
2023-03-02T17:25:56.065Z,0.39
2023-03-02T17:28:23.278Z,0.18
2023-03-02T17:30:50.186Z,0.34
2023-03-02T17:33:17.292Z,0.35
2023-03-02T17:35:44.259Z,0.32
2023-03-02T17:38:11.674Z,0.40
2023-03-02T17:40:38.450Z,0.41
2023-03-02T17:43:06.060Z,0.45
2023-03-02T17:45:32.700Z,0.22
2023-03-02T17:47:59.640Z,0.29
2023-03-02T17:50:28.004Z,0.19
2023-03-02T17:52:55.408Z,-0.28
2023-03-02T17:55:22.380Z,-0.05
2023-03-02T17:57:51.219Z,-0.26
2023-03-02T18:00:20.885Z,-0.14
2023-03-02T18:02:49.061Z,-0.07
2023-03-02T18:05:15.752Z,0.01
2023-03-02T18:07:42.312Z,0.04
2023-03-02T18:10:09.664Z,0.03
2023-03-02T18:12:36.386Z,-0.01
2023-03-02T18:15:03.722Z,-0.19
2023-03-02T18:17:30.421Z,-0.33
2023-03-02T18:19:57.095Z,-0.59
2023-03-02T18:22:23.956Z,-0.61
2023-03-02T18:24:52.053Z,-0.65
2023-03-02T18:27:19.228Z,-0.83
2023-03-02T18:29:45.927Z,-0.64
2023-03-02T18:32:27.061Z,-0.78
2023-03-02T18:34:53.765Z,-0.89
2023-03-02T18:37:20.561Z,-0.82
2023-03-02T18:39:47.661Z,-1.00
2023-03-02T18:42:14.235Z,-0.93
2023-03-02T18:44:41.550Z,-0.82
2023-03-02T18:47:10.021Z,-1.00
2023-03-02T18:49:38.362Z,-0.94
2023-03-02T18:52:06.995Z,-1.12
2023-03-02T18:54:33.930Z,-1.04
2023-03-02T18:57:01.744Z,-1.09
2023-03-02T18:59:29.228Z,-1.20
2023-03-02T19:01:56.052Z,-1.21
2023-03-02T19:04:26.547Z,-1.26
2023-03-02T19:06:56.085Z,-1.20
2023-03-02T19:09:23.680Z,-1.26
2023-03-02T19:11:50.241Z,-1.36
2023-03-02T19:14:16.922Z,-1.40
2023-03-02T19:16:43.828Z,-1.41
2023-03-02T19:19:10.553Z,-1.50
2023-03-02T19:21:37.169Z,-1.61
2023-03-02T19:24:04.024Z,-1.66
2023-03-02T19:26:33.689Z,-1.79
2023-03-02T19:29:00.373Z,-1.74
2023-03-02T19:31:27.790Z,-1.76
2023-03-02T19:33:54.770Z,-1.89
2023-03-02T19:36:21.377Z,-2.15
2023-03-02T19:38:48.768Z,-2.01
2023-03-02T19:41:17.449Z,-2.04
2023-03-02T19:43:45.454Z,-1.87
2023-03-02T19:46:14.247Z,-1.89
2023-03-02T19:48:42.180Z,-2.08
2023-03-02T19:51:09.678Z,-1.99
2023-03-02T19:53:38.644Z,-2.04
2023-03-02T19:56:08.491Z,-2.01
2023-03-02T19:58:36.203Z,-2.14
2023-03-02T20:01:04.251Z,-2.32
2023-03-02T20:03:31.069Z,-2.26
2023-03-02T20:05:59.156Z,-2.38
2023-03-02T20:08:26.072Z,-2.28
2023-03-02T20:10:53.043Z,-2.31
2023-03-02T20:13:19.945Z,-2.17
2023-03-02T20:15:47.332Z,-2.15
2023-03-02T20:18:18.899Z,-2.12
2023-03-02T20:20:47.395Z,-2.14
2023-03-02T20:23:15.183Z,-2.16
2023-03-02T20:25:46.583Z,-2.22
2023-03-02T20:28:17.650Z,-2.27
2023-03-02T20:30:48.413Z,-2.25
2023-03-02T20:33:15.630Z,-2.24
2023-03-02T20:35:44.714Z,-2.12
2023-03-02T20:38:21.712Z,-2.13
2023-03-02T20:40:48.625Z,-2.53
2023-03-02T20:43:15.261Z,-2.16
2023-03-02T20:45:45.106Z,-2.15
2023-03-02T20:48:11.953Z,-2.13
2023-03-02T20:50:39.337Z,-2.14
2023-03-02T20:53:07.283Z,-2.20
2023-03-02T20:55:36.938Z,-2.17
2023-03-02T20:58:05.442Z,-2.16
2023-03-02T21:00:35.076Z,-2.15
2023-03-02T21:03:02.533Z,-2.16
2023-03-02T21:05:30.698Z,-2.17
2023-03-02T21:07:57.405Z,-2.17
2023-03-02T21:10:33.023Z,-2.21
2023-03-02T21:13:00.007Z,-2.31
2023-03-02T21:15:28.128Z,-2.18
2023-03-02T21:17:56.236Z,-2.17
2023-03-02T21:20:26.338Z,-2.28
2023-03-02T21:22:53.029Z,-2.23
2023-03-02T21:25:20.641Z,-2.25
2023-03-02T21:27:47.944Z,-2.21
2023-03-02T21:30:22.475Z,-2.25
2023-03-02T21:32:51.677Z,-2.28
2023-03-02T21:35:20.479Z,-2.33
2023-03-02T21:37:49.205Z,-2.35
2023-03-02T21:40:22.862Z,-2.43
2023-03-02T21:42:49.588Z,-2.73
2023-03-02T21:45:18.944Z,-2.42
2023-03-02T21:47:46.125Z,-2.42
2023-03-02T21:50:15.677Z,-2.47
2023-03-02T21:52:42.427Z,-2.55
2023-03-02T21:55:11.642Z,-2.54
2023-03-02T21:57:38.270Z,-2.55
2023-03-02T22:00:06.198Z,-2.72
2023-03-02T22:02:32.979Z,-2.63
2023-03-02T22:04:59.644Z,-2.66
2023-03-02T22:07:26.327Z,-2.67
2023-03-02T22:09:53.247Z,-2.94
2023-03-02T22:12:22.967Z,-2.72
2023-03-02T22:14:50.650Z,-2.72
2023-03-02T22:17:20.920Z,-2.98
2023-03-02T22:19:48.711Z,-2.82
2023-03-02T22:22:33.367Z,-2.81
2023-03-02T22:25:00.055Z,-2.91
2023-03-02T22:27:28.300Z,-2.94
2023-03-02T22:29:58.079Z,-3.01
2023-03-02T22:32:38.488Z,-3.12
2023-03-02T22:35:22.118Z,-3.18
2023-03-02T22:37:49.629Z,-3.27
2023-03-02T22:40:29.652Z,-3.17
2023-03-02T22:43:24.840Z,-3.18
2023-03-02T22:45:52.831Z,-3.22
2023-03-02T22:48:23.020Z,-3.16
2023-03-02T22:50:50.381Z,-3.14
2023-03-02T22:53:26.668Z,-3.09
2023-03-02T22:55:58.694Z,-3.07
2023-03-02T22:58:46.110Z,-3.13
2023-03-02T23:01:39.280Z,-3.12
2023-03-02T23:04:22.786Z,-3.22
2023-03-02T23:06:55.282Z,-3.19
2023-03-02T23:09:26.118Z,-3.22
2023-03-02T23:11:56.647Z,-3.25
2023-03-02T23:14:38.861Z,-3.36
2023-03-02T23:17:14.708Z,-3.48
2023-03-02T23:19:41.373Z,-3.44
2023-03-02T23:22:08.354Z,-3.49
2023-03-02T23:24:35.006Z,-3.53
2023-03-02T23:27:02.089Z,-3.56
2023-03-02T23:29:29.166Z,-3.70
2023-03-02T23:31:56.132Z,-3.69
2023-03-02T23:34:23.650Z,-3.70
2023-03-02T23:36:50.427Z,-3.73
2023-03-02T23:39:17.702Z,-3.76
2023-03-02T23:41:44.379Z,-3.78
2023-03-02T23:44:11.030Z,-3.80
2023-03-02T23:46:37.673Z,-3.82
2023-03-02T23:49:04.522Z,-4.01
2023-03-02T23:51:31.354Z,-3.98
2023-03-02T23:53:57.968Z,-3.99
2023-03-02T23:56:24.953Z,-3.99
2023-03-02T23:58:51.566Z,-4.04
